Time;durP1;ratioP1;P1;durP2;ratioP2;P2;SDS_P1;SDS_P2;PMS_P1;PMS_P2;Temp;Humidity;BMP_temperature;BMP_pressure;BME280_temperature;BME280_humidity;BME280_pressure;Samples;Min_cycle;Max_cycle;Signal;HPM_P1;HPM_P2
2023/02/23 00:00:07;;;;;;;1.5;1.5;;;;;;;9.3;100.0;101040;;;;
2023/02/23 00:01:00;;;;;;;1.5;1.5;;;;;;;9.4;100.0;101040;;;;
2023/02/23 00:02:06;;;;;;;1.5;1.5;;;;;;;9.4;100.0;101040;;;;
2023/02/23 00:03:01;;;;;;;1.5;1.5;;;;;;;9.3;100.0;101040;;;;
2023/02/23 00:04:00;;;;;;;1.5;1.5;;;;;;;9.3;100.0;101040;;;;
2023/02/23 00:05:00;;;;;;;1.5;1.5;;;;;;;9.2;100.0;101040;;;;
2023/02/23 00:06:02;;;;;;;1.5;1.5;;;;;;;9.2;100.0;101040;;;;
2023/02/23 00:07:00;;;;;;;1.5;1.5;;;;;;;9.2;100.0;101040;;;;
2023/02/23 00:08:00;;;;;;;1.5;1.5;;;;;;;9.2;100.0;101040;;;;
2023/02/23 00:09:00;;;;;;;1.5;1.5;;;;;;;9.3;100.0;101040;;;;
2023/02/23 00:10:00;;;;;;;1.2;1.2;;;;;;;9.3;100.0;101040;;;;
2023/02/23 00:11:00;;;;;;;1.2;1.2;;;;;;;9.2;100.0;101040;;;;
2023/02/23 00:12:06;;;;;;;1.2;1.2;;;;;;;9.2;100.0;101040;;;;
2023/02/23 00:13:00;;;;;;;1.2;1.2;;;;;;;9.3;100.0;101040;;;;
2023/02/23 00:14:01;;;;;;;1.2;1.2;;;;;;;9.3;100.0;101040;;;;
2023/02/23 00:15:00;;;;;;;1.2;1.2;;;;;;;9.2;100.0;101040;;;;
2023/02/23 00:16:02;;;;;;;1.2;1.2;;;;;;;9.2;100.0;101040;;;;
2023/02/23 00:17:00;;;;;;;1.2;1.2;;;;;;;9.2;100.0;101040;;;;
2023/02/23 00:18:03;;;;;;;1.2;1.2;;;;;;;9.2;100.0;101040;;;;
2023/02/23 00:19:01;;;;;;;1.2;1.2;;;;;;;9.2;100.0;101040;;;;
2023/02/23 00:20:04;;;;;;;1.2;1.2;;;;;;;9.2;100.0;101040;;;;
2023/02/23 00:21:00;;;;;;;1.2;1.2;;;;;;;9.2;100.0;101040;;;;
2023/02/23 00:22:00;;;;;;;1.2;1.2;;;;;;;9.2;100.0;101040;;;;
2023/02/23 00:23:00;;;;;;;1.2;1.2;;;;;;;9.2;100.0;101040;;;;
2023/02/23 00:24:01;;;;;;;1.2;1.2;;;;;;;9.2;100.0;101040;;;;
2023/02/23 00:25:01;;;;;;;1.2;1.2;;;;;;;9.2;100.0;101040;;;;
2023/02/23 00:26:03;;;;;;;1.2;1.2;;;;;;;9.2;100.0;101040;;;;
2023/02/23 00:27:05;;;;;;;1.2;1.2;;;;;;;9.2;100.0;101040;;;;
2023/02/23 00:28:00;;;;;;;1.2;1.2;;;;;;;9.2;100.0;101040;;;;
2023/02/23 00:29:01;;;;;;;1.2;1.2;;;;;;;9.2;100.0;101040;;;;
2023/02/23 00:30:00;;;;;;;2.7;2.5;;;;;;;9.2;100.0;101040;;;;
2023/02/23 00:31:02;;;;;;;2.7;2.5;;;;;;;9.3;100.0;101040;;;;
2023/02/23 00:32:00;;;;;;;2.7;2.5;;;;;;;9.3;100.0;101040;;;;
2023/02/23 00:33:00;;;;;;;2.7;2.5;;;;;;;9.3;100.0;101040;;;;
2023/02/23 00:34:01;;;;;;;2.7;2.5;;;;;;;9.3;100.0;101040;;;;
2023/02/23 00:35:00;;;;;;;2.7;2.5;;;;;;;9.2;100.0;101040;;;;
2023/02/23 00:36:04;;;;;;;2.7;2.5;;;;;;;9.2;100.0;101040;;;;
2023/02/23 00:37:00;;;;;;;2.7;2.5;;;;;;;9.2;100.0;101040;;;;
2023/02/23 00:38:00;;;;;;;2.7;2.5;;;;;;;9.2;100.0;101040;;;;
2023/02/23 00:39:05;;;;;;;2.7;2.5;;;;;;;9.1;100.0;101040;;;;
2023/02/23 00:40:00;;;;;;;2.7;2.5;;;;;;;9.1;100.0;101040;;;;
2023/02/23 00:41:05;;;;;;;2.7;2.5;;;;;;;9.1;100.0;101040;;;;
2023/02/23 00:42:01;;;;;;;2.7;2.5;;;;;;;9.1;100.0;101040;;;;
2023/02/23 00:43:00;;;;;;;2.7;2.5;;;;;;;9.1;100.0;101040;;;;
2023/02/23 00:44:00;;;;;;;2.7;2.5;;;;;;;9.1;100.0;101040;;;;
2023/02/23 00:45:06;;;;;;;2.7;2.5;;;;;;;9.1;100.0;101030;;;;
2023/02/23 00:46:04;;;;;;;2.7;2.5;;;;;;;9.1;100.0;101030;;;;
2023/02/23 00:47:00;;;;;;;2.7;2.5;;;;;;;9.1;100.0;101030;;;;
2023/02/23 00:48:02;;;;;;;2.7;2.5;;;;;;;9.1;100.0;101030;;;;
2023/02/23 00:49:00;;;;;;;2.7;2.5;;;;;;;9.1;100.0;101030;;;;
2023/02/23 00:50:00;;;;;;;1.7;1.6;;;;;;;9.1;100.0;101030;;;;
2023/02/23 00:51:01;;;;;;;1.7;1.6;;;;;;;9.2;100.0;101030;;;;
2023/02/23 00:52:00;;;;;;;1.7;1.6;;;;;;;9.2;100.0;101030;;;;
2023/02/23 00:53:00;;;;;;;1.7;1.6;;;;;;;9.1;100.0;101030;;;;
2023/02/23 00:54:00;;;;;;;1.7;1.6;;;;;;;9.1;100.0;101030;;;;
2023/02/23 00:55:00;;;;;;;1.7;1.6;;;;;;;9.1;100.0;101030;;;;
2023/02/23 00:56:02;;;;;;;1.7;1.6;;;;;;;9.1;100.0;101030;;;;
2023/02/23 00:57:00;;;;;;;1.7;1.6;;;;;;;9.1;100.0;101030;;;;
2023/02/23 00:58:02;;;;;;;1.7;1.6;;;;;;;9.1;100.0;101030;;;;
2023/02/23 00:59:00;;;;;;;1.7;1.6;;;;;;;9.1;100.0;101030;;;;
2023/02/23 01:00:00;;;;;;;1.7;1.6;;;;;;;9.1;100.0;101030;;;;
2023/02/23 01:01:00;;;;;;;1.7;1.6;;;;;;;9.1;100.0;101030;;;;
2023/02/23 01:02:00;;;;;;;1.7;1.6;;;;;;;9.1;100.0;101030;;;;
2023/02/23 01:03:00;;;;;;;1.7;1.6;;;;;;;9.0;100.0;101030;;;;
2023/02/23 01:04:01;;;;;;;1.7;1.6;;;;;;;9.0;100.0;101030;;;;
2023/02/23 01:05:00;;;;;;;1.7;1.6;;;;;;;9.0;100.0;101040;;;;
2023/02/23 01:06:04;;;;;;;1.7;1.6;;;;;;;9.0;100.0;101040;;;;
2023/02/23 01:07:02;;;;;;;1.7;1.6;;;;;;;9.0;100.0;101040;;;;
2023/02/23 01:08:00;;;;;;;1.7;1.6;;;;;;;9.0;100.0;101040;;;;
2023/02/23 01:09:04;;;;;;;1.7;1.6;;;;;;;9.0;100.0;101030;;;;
2023/02/23 01:10:00;;;;;;;2.2;2.1;;;;;;;9.0;100.0;101030;;;;
2023/02/23 01:11:10;;;;;;;2.2;2.1;;;;;;;9.0;100.0;101030;;;;
2023/02/23 01:12:00;;;;;;;2.2;2.1;;;;;;;9.0;100.0;101030;;;;
2023/02/23 01:13:01;;;;;;;2.2;2.1;;;;;;;9.0;100.0;101030;;;;
2023/02/23 01:14:00;;;;;;;2.2;2.1;;;;;;;9.0;100.0;101030;;;;
2023/02/23 01:15:02;;;;;;;2.2;2.1;;;;;;;9.1;100.0;101030;;;;
2023/02/23 01:16:03;;;;;;;2.2;2.1;;;;;;;9.1;100.0;101030;;;;
2023/02/23 01:17:00;;;;;;;2.2;2.1;;;;;;;9.0;100.0;101030;;;;
2023/02/23 01:18:00;;;;;;;2.2;2.1;;;;;;;9.0;100.0;101030;;;;
2023/02/23 01:19:02;;;;;;;2.2;2.1;;;;;;;8.9;100.0;101040;;;;
2023/02/23 01:20:00;;;;;;;2.2;2.1;;;;;;;8.9;100.0;101040;;;;
2023/02/23 01:21:01;;;;;;;2.2;2.1;;;;;;;8.9;100.0;101030;;;;
2023/02/23 01:22:01;;;;;;;2.2;2.1;;;;;;;8.9;100.0;101030;;;;
2023/02/23 01:23:00;;;;;;;2.2;2.1;;;;;;;8.9;100.0;101040;;;;
2023/02/23 01:24:01;;;;;;;2.2;2.1;;;;;;;8.9;100.0;101040;;;;
2023/02/23 01:25:00;;;;;;;2.2;2.1;;;;;;;8.8;100.0;101040;;;;
2023/02/23 01:26:00;;;;;;;2.2;2.1;;;;;;;8.8;100.0;101040;;;;
2023/02/23 01:27:00;;;;;;;2.2;2.1;;;;;;;8.9;100.0;101040;;;;
2023/02/23 01:28:00;;;;;;;2.2;2.1;;;;;;;8.9;100.0;101040;;;;
2023/02/23 01:29:04;;;;;;;2.2;2.1;;;;;;;9.0;100.0;101040;;;;
2023/02/23 01:30:00;;;;;;;1.6;1.6;;;;;;;9.0;100.0;101040;;;;
2023/02/23 01:31:00;;;;;;;1.6;1.6;;;;;;;8.9;100.0;101040;;;;
2023/02/23 01:32:04;;;;;;;1.6;1.6;;;;;;;8.9;100.0;101040;;;;
2023/02/23 01:33:01;;;;;;;1.6;1.6;;;;;;;8.9;100.0;101040;;;;
2023/02/23 01:34:01;;;;;;;1.6;1.6;;;;;;;8.9;100.0;101040;;;;
2023/02/23 01:35:00;;;;;;;1.6;1.6;;;;;;;8.9;100.0;101040;;;;
2023/02/23 01:36:00;;;;;;;1.6;1.6;;;;;;;8.9;100.0;101040;;;;
2023/02/23 01:37:00;;;;;;;1.6;1.6;;;;;;;8.9;100.0;101040;;;;
2023/02/23 01:38:00;;;;;;;1.6;1.6;;;;;;;8.9;100.0;101040;;;;
2023/02/23 01:39:00;;;;;;;1.6;1.6;;;;;;;8.8;100.0;101040;;;;
2023/02/23 01:40:08;;;;;;;1.6;1.6;;;;;;;8.8;100.0;101040;;;;
2023/02/23 01:41:00;;;;;;;1.6;1.6;;;;;;;8.9;100.0;101040;;;;
2023/02/23 01:42:00;;;;;;;1.6;1.6;;;;;;;8.9;100.0;101040;;;;
2023/02/23 01:43:10;;;;;;;1.6;1.6;;;;;;;8.9;100.0;101040;;;;
2023/02/23 01:44:00;;;;;;;1.6;1.6;;;;;;;8.9;100.0;101040;;;;
2023/02/23 01:45:10;;;;;;;1.6;1.6;;;;;;;8.9;100.0;101040;;;;
2023/02/23 01:46:00;;;;;;;1.6;1.6;;;;;;;8.9;100.0;101040;;;;
2023/02/23 01:47:00;;;;;;;1.6;1.6;;;;;;;8.8;100.0;101040;;;;
2023/02/23 01:48:04;;;;;;;1.6;1.6;;;;;;;8.8;100.0;101040;;;;
2023/02/23 01:49:01;;;;;;;1.6;1.6;;;;;;;8.8;100.0;101040;;;;
2023/02/23 01:50:00;;;;;;;1.4;1.4;;;;;;;8.8;100.0;101040;;;;
2023/02/23 01:51:01;;;;;;;1.4;1.4;;;;;;;8.8;100.0;101040;;;;
2023/02/23 01:52:03;;;;;;;1.4;1.4;;;;;;;8.8;100.0;101040;;;;
2023/02/23 01:53:00;;;;;;;1.4;1.4;;;;;;;8.8;100.0;101040;;;;
2023/02/23 01:54:03;;;;;;;1.4;1.4;;;;;;;8.8;100.0;101040;;;;
2023/02/23 01:55:00;;;;;;;1.4;1.4;;;;;;;8.8;100.0;101040;;;;
2023/02/23 01:56:04;;;;;;;1.4;1.4;;;;;;;8.8;100.0;101040;;;;
2023/02/23 01:57:01;;;;;;;1.4;1.4;;;;;;;8.9;100.0;101050;;;;
2023/02/23 01:58:05;;;;;;;1.4;1.4;;;;;;;8.9;100.0;101050;;;;
2023/02/23 01:59:05;;;;;;;1.4;1.4;;;;;;;8.8;100.0;101040;;;;
2023/02/23 02:00:00;;;;;;;1.4;1.4;;;;;;;8.8;100.0;101040;;;;
2023/02/23 02:01:01;;;;;;;1.4;1.4;;;;;;;8.8;100.0;101040;;;;
2023/02/23 02:02:03;;;;;;;1.4;1.4;;;;;;;8.8;100.0;101040;;;;
2023/02/23 02:03:02;;;;;;;1.4;1.4;;;;;;;8.8;100.0;101050;;;;
2023/02/23 02:04:01;;;;;;;1.4;1.4;;;;;;;8.8;100.0;101050;;;;
2023/02/23 02:05:03;;;;;;;1.4;1.4;;;;;;;8.8;100.0;101050;;;;
2023/02/23 02:06:01;;;;;;;1.4;1.4;;;;;;;8.8;100.0;101050;;;;
2023/02/23 02:07:02;;;;;;;1.4;1.4;;;;;;;8.7;100.0;101050;;;;
2023/02/23 02:08:00;;;;;;;1.4;1.4;;;;;;;8.7;100.0;101050;;;;
2023/02/23 02:09:05;;;;;;;1.4;1.4;;;;;;;8.7;100.0;101050;;;;
2023/02/23 02:11:07;;;;;;;1.4;1.4;;;;;;;8.8;100.0;101050;;;;
2023/02/23 02:12:01;;;;;;;1.4;1.4;;;;;;;8.8;100.0;101050;;;;
2023/02/23 02:13:04;;;;;;;1.4;1.4;;;;;;;8.8;100.0;101050;;;;
2023/02/23 02:14:02;;;;;;;1.4;1.4;;;;;;;8.8;100.0;101050;;;;
2023/02/23 02:15:03;;;;;;;1.4;1.4;;;;;;;8.8;100.0;101050;;;;
2023/02/23 02:16:11;;;;;;;1.4;1.4;;;;;;;8.8;100.0;101050;;;;
2023/02/23 02:17:10;;;;;;;1.4;1.4;;;;;;;8.8;100.0;101050;;;;
2023/02/23 02:18:07;;;;;;;1.4;1.4;;;;;;;8.8;100.0;101050;;;;
2023/02/23 02:19:10;;;;;;;1.4;1.4;;;;;;;8.8;100.0;101050;;;;
2023/02/23 02:20:13;;;;;;;1.4;1.4;;;;;;;8.8;100.0;101050;;;;
2023/02/23 02:21:04;;;;;;;1.4;1.4;;;;;;;8.8;100.0;101050;;;;
2023/02/23 02:22:10;;;;;;;1.4;1.4;;;;;;;8.8;100.0;101050;;;;
2023/02/23 02:23:10;;;;;;;1.4;1.4;;;;;;;8.6;100.0;101050;;;;
2023/02/23 02:24:00;;;;;;;1.4;1.4;;;;;;;8.6;100.0;101050;;;;
2023/02/23 02:25:00;;;;;;;1.4;1.4;;;;;;;8.7;100.0;101050;;;;
2023/02/23 02:26:10;;;;;;;1.4;1.4;;;;;;;8.7;100.0;101050;;;;
2023/02/23 02:27:10;;;;;;;1.4;1.4;;;;;;;8.8;100.0;101050;;;;
2023/02/23 02:28:10;;;;;;;1.4;1.4;;;;;;;8.8;100.0;101050;;;;
2023/02/23 02:29:10;;;;;;;1.9;1.7;;;;;;;8.8;100.0;101050;;;;
2023/02/23 02:30:09;;;;;;;1.9;1.7;;;;;;;8.8;100.0;101050;;;;
2023/02/23 02:31:10;;;;;;;1.9;1.7;;;;;;;8.7;100.0;101050;;;;
2023/02/23 02:32:10;;;;;;;1.9;1.7;;;;;;;8.7;100.0;101050;;;;
2023/02/23 02:33:10;;;;;;;1.9;1.7;;;;;;;8.7;100.0;101050;;;;
2023/02/23 02:34:10;;;;;;;1.9;1.7;;;;;;;8.7;100.0;101050;;;;
2023/02/23 02:35:10;;;;;;;1.9;1.7;;;;;;;8.7;100.0;101050;;;;
2023/02/23 02:36:10;;;;;;;1.9;1.7;;;;;;;8.7;100.0;101050;;;;
2023/02/23 02:37:10;;;;;;;1.9;1.7;;;;;;;8.7;100.0;101050;;;;
2023/02/23 02:38:10;;;;;;;1.9;1.7;;;;;;;8.7;100.0;101050;;;;
2023/02/23 02:39:09;;;;;;;1.9;1.7;;;;;;;8.6;100.0;101050;;;;
2023/02/23 02:40:15;;;;;;;1.9;1.7;;;;;;;8.6;100.0;101050;;;;
2023/02/23 02:41:00;;;;;;;1.9;1.7;;;;;;;8.7;100.0;101050;;;;
2023/02/23 02:42:07;;;;;;;1.9;1.7;;;;;;;8.7;100.0;101050;;;;
2023/02/23 02:43:10;;;;;;;1.9;1.7;;;;;;;8.7;100.0;101050;;;;
2023/02/23 02:44:03;;;;;;;1.9;1.7;;;;;;;8.7;100.0;101050;;;;
2023/02/23 02:45:10;;;;;;;1.9;1.7;;;;;;;8.7;100.0;101050;;;;
2023/02/23 02:46:01;;;;;;;1.9;1.7;;;;;;;8.7;100.0;101050;;;;
2023/02/23 02:47:06;;;;;;;1.9;1.7;;;;;;;8.7;100.0;101050;;;;
2023/02/23 02:48:07;;;;;;;1.9;1.7;;;;;;;8.7;100.0;101050;;;;
2023/02/23 02:49:10;;;;;;;1.5;1.4;;;;;;;8.7;100.0;101050;;;;
2023/02/23 02:50:05;;;;;;;1.5;1.4;;;;;;;8.7;100.0;101050;;;;
2023/02/23 02:51:08;;;;;;;1.5;1.4;;;;;;;8.7;100.0;101050;;;;
2023/02/23 02:52:07;;;;;;;1.5;1.4;;;;;;;8.7;100.0;101050;;;;
2023/02/23 02:53:05;;;;;;;1.5;1.4;;;;;;;8.7;100.0;101050;;;;
2023/02/23 02:54:05;;;;;;;1.5;1.4;;;;;;;8.7;100.0;101050;;;;
2023/02/23 02:55:08;;;;;;;1.5;1.4;;;;;;;8.7;100.0;101050;;;;
2023/02/23 02:56:04;;;;;;;1.5;1.4;;;;;;;8.7;100.0;101050;;;;
2023/02/23 02:57:03;;;;;;;1.5;1.4;;;;;;;8.7;100.0;101050;;;;
2023/02/23 02:58:01;;;;;;;1.5;1.4;;;;;;;8.7;100.0;101050;;;;
2023/02/23 04:18:02;;;;;;;1.9;1.8;;;;;;;8.4;100.0;101080;;;;
2023/02/23 04:19:00;;;;;;;1.9;1.8;;;;;;;8.4;100.0;101080;;;;
2023/02/23 04:20:00;;;;;;;1.9;1.8;;;;;;;8.4;100.0;101080;;;;
2023/02/23 04:21:00;;;;;;;1.9;1.8;;;;;;;8.5;100.0;101080;;;;
2023/02/23 04:22:00;;;;;;;1.9;1.8;;;;;;;8.5;100.0;101080;;;;
2023/02/23 04:23:00;;;;;;;1.9;1.8;;;;;;;8.5;100.0;101090;;;;
2023/02/23 04:24:00;;;;;;;1.9;1.8;;;;;;;8.5;100.0;101090;;;;
2023/02/23 04:25:00;;;;;;;1.9;1.8;;;;;;;8.5;100.0;101090;;;;
2023/02/23 04:26:00;;;;;;;1.9;1.8;;;;;;;8.5;100.0;101090;;;;
2023/02/23 04:27:01;;;;;;;1.9;1.8;;;;;;;8.4;100.0;101090;;;;
2023/02/23 04:28:00;;;;;;;1.9;1.8;;;;;;;8.4;100.0;101090;;;;
2023/02/23 04:29:00;;;;;;;2.1;2.0;;;;;;;8.5;100.0;101090;;;;
2023/02/23 04:30:02;;;;;;;2.1;2.0;;;;;;;8.5;100.0;101090;;;;
2023/02/23 04:31:00;;;;;;;2.1;2.0;;;;;;;8.5;100.0;101090;;;;
2023/02/23 04:32:00;;;;;;;2.1;2.0;;;;;;;8.5;100.0;101090;;;;
2023/02/23 04:33:00;;;;;;;2.1;2.0;;;;;;;8.5;100.0;101090;;;;
2023/02/23 04:34:00;;;;;;;2.1;2.0;;;;;;;8.5;100.0;101090;;;;
2023/02/23 04:35:00;;;;;;;2.1;2.0;;;;;;;8.5;100.0;101100;;;;
2023/02/23 04:36:00;;;;;;;2.1;2.0;;;;;;;8.5;100.0;101100;;;;
2023/02/23 04:37:00;;;;;;;2.1;2.0;;;;;;;8.4;100.0;101090;;;;
2023/02/23 04:38:00;;;;;;;2.1;2.0;;;;;;;8.4;100.0;101090;;;;
2023/02/23 04:39:00;;;;;;;2.1;2.0;;;;;;;8.4;100.0;101090;;;;
2023/02/23 04:40:00;;;;;;;2.1;2.0;;;;;;;8.4;100.0;101090;;;;
2023/02/23 04:41:00;;;;;;;2.1;2.0;;;;;;;8.4;100.0;101090;;;;
2023/02/23 04:42:00;;;;;;;2.1;2.0;;;;;;;8.4;100.0;101090;;;;
2023/02/23 04:43:00;;;;;;;2.1;2.0;;;;;;;8.3;100.0;101090;;;;
2023/02/23 04:44:00;;;;;;;2.1;2.0;;;;;;;8.3;100.0;101090;;;;
2023/02/23 04:45:00;;;;;;;2.1;2.0;;;;;;;8.4;100.0;101090;;;;
2023/02/23 04:46:00;;;;;;;2.1;2.0;;;;;;;8.4;100.0;101090;;;;
2023/02/23 04:47:00;;;;;;;2.1;2.0;;;;;;;8.4;100.0;101100;;;;
2023/02/23 04:48:00;;;;;;;2.1;2.0;;;;;;;8.4;100.0;101100;;;;
2023/02/23 04:49:00;;;;;;;1.8;1.7;;;;;;;8.4;100.0;101100;;;;
2023/02/23 04:50:00;;;;;;;1.8;1.7;;;;;;;8.4;100.0;101100;;;;
2023/02/23 04:51:00;;;;;;;1.8;1.7;;;;;;;8.4;100.0;101100;;;;
2023/02/23 04:52:00;;;;;;;1.8;1.7;;;;;;;8.4;100.0;101100;;;;
2023/02/23 04:53:00;;;;;;;1.8;1.7;;;;;;;8.4;100.0;101100;;;;
2023/02/23 04:54:01;;;;;;;1.8;1.7;;;;;;;8.4;100.0;101100;;;;
2023/02/23 04:55:00;;;;;;;1.8;1.7;;;;;;;8.4;100.0;101100;;;;
2023/02/23 04:56:00;;;;;;;1.8;1.7;;;;;;;8.4;100.0;101100;;;;
2023/02/23 04:57:00;;;;;;;1.8;1.7;;;;;;;8.4;100.0;101100;;;;
2023/02/23 04:58:00;;;;;;;1.8;1.7;;;;;;;8.4;100.0;101100;;;;
2023/02/23 04:59:00;;;;;;;1.8;1.7;;;;;;;8.4;100.0;101100;;;;
2023/02/23 05:00:01;;;;;;;1.8;1.7;;;;;;;8.4;100.0;101100;;;;
2023/02/23 05:01:05;;;;;;;1.8;1.7;;;;;;;8.4;100.0;101100;;;;
2023/02/23 05:02:00;;;;;;;1.8;1.7;;;;;;;8.4;100.0;101100;;;;
2023/02/23 05:03:00;;;;;;;1.8;1.7;;;;;;;8.4;100.0;101100;;;;
2023/02/23 05:04:00;;;;;;;1.8;1.7;;;;;;;8.4;100.0;101100;;;;
2023/02/23 05:05:00;;;;;;;1.8;1.7;;;;;;;8.4;100.0;101100;;;;
2023/02/23 05:06:00;;;;;;;1.8;1.7;;;;;;;8.4;100.0;101100;;;;
2023/02/23 05:07:00;;;;;;;1.8;1.7;;;;;;;8.3;100.0;101100;;;;
2023/02/23 05:08:00;;;;;;;1.8;1.7;;;;;;;8.3;100.0;101100;;;;
2023/02/23 05:09:02;;;;;;;1.1;1.1;;;;;;;8.3;100.0;101100;;;;
2023/02/23 05:10:00;;;;;;;1.1;1.1;;;;;;;8.3;100.0;101100;;;;
2023/02/23 05:11:00;;;;;;;1.1;1.1;;;;;;;8.3;100.0;101100;;;;
2023/02/23 05:12:00;;;;;;;1.1;1.1;;;;;;;8.3;100.0;101100;;;;
2023/02/23 05:13:00;;;;;;;1.1;1.1;;;;;;;8.4;100.0;101110;;;;
2023/02/23 05:14:00;;;;;;;1.1;1.1;;;;;;;8.4;100.0;101110;;;;
2023/02/23 05:15:00;;;;;;;1.1;1.1;;;;;;;8.4;100.0;101100;;;;
2023/02/23 05:16:00;;;;;;;1.1;1.1;;;;;;;8.4;100.0;101100;;;;
2023/02/23 05:17:00;;;;;;;1.1;1.1;;;;;;;8.3;100.0;101110;;;;
2023/02/23 05:18:00;;;;;;;1.1;1.1;;;;;;;8.3;100.0;101110;;;;
2023/02/23 05:19:00;;;;;;;1.1;1.1;;;;;;;8.3;100.0;101110;;;;
2023/02/23 05:20:00;;;;;;;1.1;1.1;;;;;;;8.3;100.0;101110;;;;
2023/02/23 05:21:01;;;;;;;1.1;1.1;;;;;;;8.3;100.0;101120;;;;
2023/02/23 05:22:00;;;;;;;1.1;1.1;;;;;;;8.3;100.0;101120;;;;
2023/02/23 05:23:00;;;;;;;1.1;1.1;;;;;;;8.3;100.0;101110;;;;
2023/02/23 05:24:01;;;;;;;1.1;1.1;;;;;;;8.3;100.0;101110;;;;
2023/02/23 05:25:00;;;;;;;1.1;1.1;;;;;;;8.2;100.0;101110;;;;
2023/02/23 05:26:03;;;;;;;1.1;1.1;;;;;;;8.2;100.0;101110;;;;
2023/02/23 05:27:00;;;;;;;1.1;1.1;;;;;;;8.2;100.0;101110;;;;
2023/02/23 05:28:00;;;;;;;1.1;1.1;;;;;;;8.2;100.0;101110;;;;
2023/02/23 05:29:00;;;;;;;1.7;1.7;;;;;;;8.2;100.0;101110;;;;
2023/02/23 05:30:00;;;;;;;1.7;1.7;;;;;;;8.2;100.0;101110;;;;
2023/02/23 05:31:02;;;;;;;1.7;1.7;;;;;;;8.2;100.0;101120;;;;
2023/02/23 05:32:00;;;;;;;1.7;1.7;;;;;;;8.2;100.0;101120;;;;
2023/02/23 05:33:00;;;;;;;1.7;1.7;;;;;;;8.2;100.0;101120;;;;
2023/02/23 05:34:00;;;;;;;1.7;1.7;;;;;;;8.2;100.0;101120;;;;
2023/02/23 05:35:01;;;;;;;1.7;1.7;;;;;;;8.3;100.0;101120;;;;
2023/02/23 05:36:03;;;;;;;1.7;1.7;;;;;;;8.3;100.0;101120;;;;
2023/02/23 05:37:00;;;;;;;1.7;1.7;;;;;;;8.3;100.0;101120;;;;
2023/02/23 05:38:00;;;;;;;1.7;1.7;;;;;;;8.3;100.0;101120;;;;
2023/02/23 05:39:00;;;;;;;1.7;1.7;;;;;;;8.2;100.0;101120;;;;
2023/02/23 05:40:00;;;;;;;1.7;1.7;;;;;;;8.2;100.0;101120;;;;
2023/02/23 05:41:03;;;;;;;1.7;1.7;;;;;;;8.2;100.0;101120;;;;
2023/02/23 05:42:00;;;;;;;1.7;1.7;;;;;;;8.2;100.0;101120;;;;
2023/02/23 05:43:00;;;;;;;1.7;1.7;;;;;;;8.3;100.0;101120;;;;
2023/02/23 05:44:00;;;;;;;1.7;1.7;;;;;;;8.3;100.0;101120;;;;
2023/02/23 05:45:00;;;;;;;1.7;1.7;;;;;;;8.2;100.0;101120;;;;
2023/02/23 05:46:00;;;;;;;unavailable;unavailable;;;;;;;unavailable;unavailable;0;;;;
2023/02/23 05:47:00;;;;;;;1.7;1.7;;;;;;;8.2;100.0;101120;;;;
2023/02/23 05:48:00;;;;;;;1.7;1.7;;;;;;;8.2;100.0;101120;;;;
2023/02/23 05:49:00;;;;;;;3.3;3.1;;;;;;;8.2;100.0;101120;;;;
2023/02/23 05:50:00;;;;;;;3.3;3.1;;;;;;;8.2;100.0;101120;;;;
2023/02/23 05:51:01;;;;;;;3.3;3.1;;;;;;;8.2;100.0;101120;;;;
2023/02/23 05:52:00;;;;;;;3.3;3.1;;;;;;;8.2;100.0;101120;;;;
2023/02/23 05:53:00;;;;;;;3.3;3.1;;;;;;;8.2;100.0;101120;;;;
2023/02/23 05:54:00;;;;;;;3.3;3.1;;;;;;;8.2;100.0;101120;;;;
2023/02/23 05:55:00;;;;;;;3.3;3.1;;;;;;;8.2;100.0;101120;;;;
2023/02/23 05:56:01;;;;;;;3.3;3.1;;;;;;;8.2;100.0;101120;;;;
2023/02/23 05:57:01;;;;;;;3.3;3.1;;;;;;;8.2;100.0;101130;;;;
2023/02/23 05:58:00;;;;;;;3.3;3.1;;;;;;;8.2;100.0;101130;;;;
2023/02/23 05:59:03;;;;;;;3.3;3.1;;;;;;;8.2;100.0;101120;;;;
2023/02/23 06:00:00;;;;;;;3.3;3.1;;;;;;;8.2;100.0;101120;;;;
2023/02/23 06:01:00;;;;;;;3.3;3.1;;;;;;;8.2;100.0;101120;;;;
2023/02/23 06:02:00;;;;;;;3.3;3.1;;;;;;;8.2;100.0;101120;;;;
2023/02/23 06:03:00;;;;;;;3.3;3.1;;;;;;;8.2;100.0;101120;;;;
2023/02/23 06:04:00;;;;;;;3.3;3.1;;;;;;;8.2;100.0;101120;;;;
2023/02/23 06:05:00;;;;;;;3.3;3.1;;;;;;;8.2;100.0;101130;;;;
2023/02/23 06:06:00;;;;;;;3.3;3.1;;;;;;;8.2;100.0;101130;;;;
2023/02/23 06:07:00;;;;;;;3.3;3.1;;;;;;;8.1;100.0;101130;;;;
2023/02/23 06:08:00;;;;;;;3.3;3.1;;;;;;;8.1;100.0;101130;;;;
2023/02/23 06:09:02;;;;;;;1.7;1.7;;;;;;;8.3;100.0;101130;;;;
2023/02/23 06:10:00;;;;;;;1.7;1.7;;;;;;;8.3;100.0;101130;;;;
2023/02/23 06:11:00;;;;;;;1.7;1.7;;;;;;;8.2;100.0;101130;;;;
2023/02/23 06:12:00;;;;;;;1.7;1.7;;;;;;;8.2;100.0;101130;;;;
2023/02/23 06:13:01;;;;;;;1.7;1.7;;;;;;;8.2;100.0;101130;;;;
2023/02/23 06:14:00;;;;;;;1.7;1.7;;;;;;;8.2;100.0;101130;;;;
2023/02/23 06:15:00;;;;;;;1.7;1.7;;;;;;;8.2;100.0;101140;;;;
2023/02/23 06:16:00;;;;;;;1.7;1.7;;;;;;;8.2;100.0;101140;;;;
2023/02/23 06:17:00;;;;;;;1.7;1.7;;;;;;;8.2;100.0;101140;;;;
2023/02/23 06:18:00;;;;;;;1.7;1.7;;;;;;;8.2;100.0;101140;;;;
2023/02/23 06:19:00;;;;;;;1.7;1.7;;;;;;;8.2;100.0;101140;;;;
2023/02/23 06:20:03;;;;;;;1.7;1.7;;;;;;;8.2;100.0;101140;;;;
2023/02/23 06:21:02;;;;;;;1.7;1.7;;;;;;;8.1;100.0;101140;;;;
2023/02/23 06:22:00;;;;;;;1.7;1.7;;;;;;;8.1;100.0;101140;;;;
2023/02/23 06:23:00;;;;;;;1.7;1.7;;;;;;;8.1;100.0;101140;;;;
2023/02/23 06:24:01;;;;;;;1.7;1.7;;;;;;;8.1;100.0;101140;;;;
2023/02/23 06:25:03;;;;;;;1.7;1.7;;;;;;;8.1;100.0;101140;;;;
2023/02/23 06:26:00;;;;;;;1.7;1.7;;;;;;;8.1;100.0;101140;;;;
2023/02/23 06:27:00;;;;;;;1.7;1.7;;;;;;;8.1;100.0;101150;;;;
2023/02/23 06:28:00;;;;;;;1.7;1.7;;;;;;;8.1;100.0;101150;;;;
2023/02/23 06:29:00;;;;;;;1.1;1.1;;;;;;;8.1;100.0;101150;;;;
2023/02/23 06:30:00;;;;;;;1.1;1.1;;;;;;;8.1;100.0;101150;;;;
2023/02/23 06:31:00;;;;;;;1.1;1.1;;;;;;;8.1;100.0;101150;;;;
2023/02/23 06:32:01;;;;;;;1.1;1.1;;;;;;;8.1;100.0;101150;;;;
2023/02/23 06:33:00;;;;;;;1.1;1.1;;;;;;;8.0;100.0;101150;;;;
2023/02/23 06:34:00;;;;;;;1.1;1.1;;;;;;;8.0;100.0;101150;;;;
2023/02/23 06:35:00;;;;;;;1.1;1.1;;;;;;;8.1;100.0;101160;;;;
2023/02/23 06:36:00;;;;;;;1.1;1.1;;;;;;;8.1;100.0;101160;;;;
2023/02/23 06:37:00;;;;;;;1.1;1.1;;;;;;;8.1;100.0;101160;;;;
2023/02/23 06:38:01;;;;;;;1.1;1.1;;;;;;;8.1;100.0;101160;;;;
2023/02/23 06:39:00;;;;;;;1.1;1.1;;;;;;;8.1;100.0;101160;;;;
2023/02/23 06:40:00;;;;;;;1.1;1.1;;;;;;;8.1;100.0;101160;;;;
2023/02/23 06:41:05;;;;;;;1.1;1.1;;;;;;;8.0;100.0;101170;;;;
2023/02/23 06:42:00;;;;;;;1.1;1.1;;;;;;;8.0;100.0;101170;;;;
2023/02/23 06:43:02;;;;;;;1.1;1.1;;;;;;;8.0;100.0;101170;;;;
2023/02/23 06:44:00;;;;;;;1.1;1.1;;;;;;;8.0;100.0;101170;;;;
2023/02/23 06:45:00;;;;;;;1.1;1.1;;;;;;;8.1;100.0;101170;;;;
2023/02/23 06:46:00;;;;;;;1.1;1.1;;;;;;;8.1;100.0;101170;;;;
2023/02/23 06:47:00;;;;;;;1.1;1.1;;;;;;;8.0;100.0;101170;;;;
2023/02/23 06:48:00;;;;;;;1.1;1.1;;;;;;;8.0;100.0;101170;;;;
2023/02/23 06:49:00;;;;;;;2.2;2.1;;;;;;;8.1;100.0;101170;;;;
2023/02/23 06:50:02;;;;;;;2.2;2.1;;;;;;;8.1;100.0;101170;;;;
2023/02/23 06:51:00;;;;;;;2.2;2.1;;;;;;;8.1;100.0;101170;;;;
2023/02/23 06:52:00;;;;;;;2.2;2.1;;;;;;;8.1;100.0;101170;;;;
2023/02/23 06:53:00;;;;;;;2.2;2.1;;;;;;;8.1;100.0;101170;;;;
2023/02/23 06:54:00;;;;;;;2.2;2.1;;;;;;;8.1;100.0;101170;;;;
2023/02/23 06:55:00;;;;;;;2.2;2.1;;;;;;;8.1;100.0;101170;;;;
2023/02/23 06:56:00;;;;;;;2.2;2.1;;;;;;;8.1;100.0;101170;;;;
2023/02/23 06:57:00;;;;;;;2.2;2.1;;;;;;;8.1;100.0;101170;;;;
2023/02/23 06:58:00;;;;;;;2.2;2.1;;;;;;;8.1;100.0;101170;;;;
2023/02/23 06:59:00;;;;;;;2.2;2.1;;;;;;;8.0;100.0;101170;;;;
2023/02/23 07:00:00;;;;;;;2.2;2.1;;;;;;;8.0;100.0;101170;;;;
2023/02/23 07:01:00;;;;;;;2.2;2.1;;;;;;;8.0;100.0;101180;;;;
2023/02/23 07:02:00;;;;;;;2.2;2.1;;;;;;;8.0;100.0;101180;;;;
2023/02/23 07:03:00;;;;;;;2.2;2.1;;;;;;;8.0;100.0;101180;;;;
2023/02/23 07:04:00;;;;;;;2.2;2.1;;;;;;;8.0;100.0;101180;;;;
2023/02/23 07:05:00;;;;;;;2.2;2.1;;;;;;;8.1;100.0;101180;;;;
2023/02/23 07:06:00;;;;;;;2.2;2.1;;;;;;;8.1;100.0;101180;;;;
2023/02/23 07:07:00;;;;;;;2.2;2.1;;;;;;;8.0;100.0;101180;;;;
2023/02/23 07:08:00;;;;;;;3.3;3.1;;;;;;;8.0;100.0;101180;;;;
2023/02/23 07:09:00;;;;;;;3.3;3.1;;;;;;;8.1;100.0;101190;;;;
2023/02/23 07:10:00;;;;;;;3.3;3.1;;;;;;;8.1;100.0;101190;;;;
2023/02/23 07:11:05;;;;;;;3.3;3.1;;;;;;;8.1;100.0;101190;;;;
2023/02/23 07:12:00;;;;;;;3.3;3.1;;;;;;;8.1;100.0;101190;;;;
2023/02/23 07:13:00;;;;;;;3.3;3.1;;;;;;;8.1;100.0;101190;;;;
2023/02/23 07:14:00;;;;;;;3.3;3.1;;;;;;;8.1;100.0;101190;;;;
2023/02/23 07:15:00;;;;;;;3.3;3.1;;;;;;;8.1;100.0;101190;;;;
2023/02/23 07:16:01;;;;;;;3.3;3.1;;;;;;;8.1;100.0;101190;;;;
2023/02/23 07:17:01;;;;;;;3.3;3.1;;;;;;;8.1;100.0;101200;;;;
2023/02/23 07:18:00;;;;;;;3.3;3.1;;;;;;;8.1;100.0;101200;;;;
2023/02/23 07:19:00;;;;;;;3.3;3.1;;;;;;;8.1;100.0;101200;;;;
2023/02/23 07:20:00;;;;;;;3.3;3.1;;;;;;;8.1;100.0;101200;;;;
2023/02/23 07:21:00;;;;;;;3.3;3.1;;;;;;;8.1;100.0;101200;;;;
2023/02/23 07:22:00;;;;;;;3.3;3.1;;;;;;;8.1;100.0;101200;;;;
2023/02/23 07:23:00;;;;;;;3.3;3.1;;;;;;;8.1;100.0;101200;;;;
2023/02/23 07:24:02;;;;;;;3.3;3.1;;;;;;;8.1;100.0;101200;;;;
2023/02/23 07:25:00;;;;;;;3.3;3.1;;;;;;;8.1;100.0;101200;;;;
2023/02/23 07:26:00;;;;;;;3.3;3.1;;;;;;;8.1;100.0;101200;;;;
2023/02/23 07:27:00;;;;;;;3.3;3.1;;;;;;;8.1;100.0;101210;;;;
2023/02/23 07:28:01;;;;;;;1.2;1.2;;;;;;;8.1;100.0;101210;;;;
2023/02/23 07:29:01;;;;;;;1.2;1.2;;;;;;;8.2;100.0;101200;;;;
2023/02/23 07:30:01;;;;;;;1.2;1.2;;;;;;;8.2;100.0;101200;;;;
2023/02/23 07:31:00;;;;;;;1.2;1.2;;;;;;;8.2;100.0;101210;;;;
2023/02/23 07:32:00;;;;;;;1.2;1.2;;;;;;;8.2;100.0;101210;;;;
2023/02/23 07:33:00;;;;;;;1.2;1.2;;;;;;;8.2;100.0;101210;;;;
2023/02/23 07:34:00;;;;;;;1.2;1.2;;;;;;;8.2;100.0;101210;;;;
2023/02/23 07:35:00;;;;;;;1.2;1.2;;;;;;;8.1;100.0;101210;;;;
2023/02/23 07:36:00;;;;;;;1.2;1.2;;;;;;;8.1;100.0;101210;;;;
2023/02/23 07:37:00;;;;;;;1.2;1.2;;;;;;;8.1;100.0;101210;;;;
2023/02/23 07:38:00;;;;;;;1.2;1.2;;;;;;;8.1;100.0;101210;;;;
2023/02/23 07:39:00;;;;;;;1.2;1.2;;;;;;;8.2;100.0;101210;;;;
2023/02/23 07:40:01;;;;;;;1.2;1.2;;;;;;;8.2;100.0;101210;;;;
2023/02/23 07:41:00;;;;;;;1.2;1.2;;;;;;;8.1;100.0;101220;;;;
2023/02/23 07:42:00;;;;;;;1.2;1.2;;;;;;;8.1;100.0;101220;;;;
2023/02/23 07:43:00;;;;;;;1.2;1.2;;;;;;;8.1;100.0;101220;;;;
2023/02/23 07:44:01;;;;;;;1.2;1.2;;;;;;;8.1;100.0;101220;;;;
2023/02/23 07:45:00;;;;;;;1.2;1.2;;;;;;;8.2;100.0;101220;;;;
2023/02/23 07:46:00;;;;;;;1.2;1.2;;;;;;;8.2;100.0;101220;;;;
2023/02/23 07:47:00;;;;;;;1.2;1.2;;;;;;;8.1;100.0;101220;;;;
2023/02/23 07:48:00;;;;;;;2.0;1.9;;;;;;;8.1;100.0;101220;;;;